sensor_id;sensor_type;location;lat;lon;timestamp;pressure;altitude;pressure_sealevel;temperature;humidity
41062;BME280;26812;42.662;23.352;2022-12-20T00:00:11;96719.50;;;1.11;61.37
41062;BME280;26812;42.662;23.352;2022-12-20T00:02:36;96705.34;;;1.17;61.22
41062;BME280;26812;42.662;23.352;2022-12-20T00:05:02;96711.69;;;1.16;60.87
41062;BME280;26812;42.662;23.352;2022-12-20T00:07:27;96725.28;;;1.01;61.58
41062;BME280;26812;42.662;23.352;2022-12-20T00:09:53;96691.31;;;0.72;61.63
41062;BME280;26812;42.662;23.352;2022-12-20T00:12:18;96719.34;;;0.99;61.84
41062;BME280;26812;42.662;23.352;2022-12-20T00:14:44;96734.00;;;1.08;62.04
41062;BME280;26812;42.662;23.352;2022-12-20T00:17:09;96714.06;;;0.99;61.28
41062;BME280;26812;42.662;23.352;2022-12-20T00:19:34;96725.00;;;1.09;61.97
41062;BME280;26812;42.662;23.352;2022-12-20T00:22:00;96717.69;;;1.05;61.32
41062;BME280;26812;42.662;23.352;2022-12-20T00:24:25;96735.84;;;1.08;61.85
41062;BME280;26812;42.662;23.352;2022-12-20T00:26:51;96741.31;;;1.13;61.51
41062;BME280;26812;42.662;23.352;2022-12-20T00:29:16;96736.53;;;0.90;61.79
41062;BME280;26812;42.662;23.352;2022-12-20T00:31:41;96729.03;;;0.80;61.90
41062;BME280;26812;42.662;23.352;2022-12-20T00:34:07;96747.97;;;0.90;62.27
41062;BME280;26812;42.662;23.352;2022-12-20T00:36:33;96726.81;;;0.77;61.67
41062;BME280;26812;42.662;23.352;2022-12-20T00:38:59;96734.38;;;0.74;61.87
41062;BME280;26812;42.662;23.352;2022-12-20T00:41:27;96724.13;;;0.84;62.14
41062;BME280;26812;42.662;23.352;2022-12-20T00:43:54;96735.88;;;1.01;61.86
41062;BME280;26812;42.662;23.352;2022-12-20T00:46:20;96724.88;;;0.98;61.06
41062;BME280;26812;42.662;23.352;2022-12-20T00:48:47;96716.63;;;0.74;62.02
41062;BME280;26812;42.662;23.352;2022-12-20T00:51:19;96722.72;;;0.75;61.87
41062;BME280;26812;42.662;23.352;2022-12-20T00:53:45;96735.03;;;0.56;62.35
41062;BME280;26812;42.662;23.352;2022-12-20T00:56:11;96714.31;;;0.40;62.99
41062;BME280;26812;42.662;23.352;2022-12-20T00:58:39;96734.59;;;0.72;62.53
41062;BME280;26812;42.662;23.352;2022-12-20T01:01:13;96729.03;;;0.80;61.97
41062;BME280;26812;42.662;23.352;2022-12-20T01:03:39;96733.00;;;0.65;61.72
41062;BME280;26812;42.662;23.352;2022-12-20T01:06:04;96737.91;;;0.54;62.28
41062;BME280;26812;42.662;23.352;2022-12-20T01:08:30;96732.84;;;0.46;62.62
41062;BME280;26812;42.662;23.352;2022-12-20T01:11:00;96729.81;;;0.36;62.68
41062;BME280;26812;42.662;23.352;2022-12-20T01:13:26;96733.28;;;0.30;62.87
41062;BME280;26812;42.662;23.352;2022-12-20T01:15:51;96726.56;;;0.21;63.83
41062;BME280;26812;42.662;23.352;2022-12-20T01:18:17;96720.44;;;0.27;63.49
41062;BME280;26812;42.662;23.352;2022-12-20T01:20:42;96709.09;;;0.07;63.59
41062;BME280;26812;42.662;23.352;2022-12-20T01:23:07;96711.13;;;0.05;64.57
41062;BME280;26812;42.662;23.352;2022-12-20T01:25:33;96702.56;;;0.09;63.95
41062;BME280;26812;42.662;23.352;2022-12-20T01:27:58;96699.31;;;-0.06;64.09
41062;BME280;26812;42.662;23.352;2022-12-20T01:30:24;96709.28;;;0.12;64.33
41062;BME280;26812;42.662;23.352;2022-12-20T01:32:49;96696.63;;;0.14;63.99
41062;BME280;26812;42.662;23.352;2022-12-20T01:35:14;96684.44;;;-0.14;63.50
41062;BME280;26812;42.662;23.352;2022-12-20T01:37:40;96687.06;;;-0.07;64.52
41062;BME280;26812;42.662;23.352;2022-12-20T01:40:06;96655.94;;;-0.32;64.10
41062;BME280;26812;42.662;23.352;2022-12-20T01:42:31;96690.31;;;-0.05;64.13
41062;BME280;26812;42.662;23.352;2022-12-20T01:44:58;96695.84;;;-0.13;64.24
41062;BME280;26812;42.662;23.352;2022-12-20T01:47:24;96680.78;;;-0.13;64.53
41062;BME280;26812;42.662;23.352;2022-12-20T01:49:53;96683.59;;;-0.08;64.06
41062;BME280;26812;42.662;23.352;2022-12-20T01:52:32;96676.94;;;-0.30;64.82
41062;BME280;26812;42.662;23.352;2022-12-20T01:55:01;96687.06;;;-0.07;64.33
41062;BME280;26812;42.662;23.352;2022-12-20T01:57:35;96674.81;;;-0.02;63.91
41062;BME280;26812;42.662;23.352;2022-12-20T02:00:04;96673.81;;;-0.01;63.48
41062;BME280;26812;42.662;23.352;2022-12-20T02:02:31;96672.41;;;0.04;63.62
41062;BME280;26812;42.662;23.352;2022-12-20T02:04:56;96650.97;;;-0.02;63.27
41062;BME280;26812;42.662;23.352;2022-12-20T02:07:28;96681.34;;;0.09;63.53
41062;BME280;26812;42.662;23.352;2022-12-20T02:09:56;96670.50;;;0.17;63.08
41062;BME280;26812;42.662;23.352;2022-12-20T02:12:24;96653.28;;;-0.25;62.97
41062;BME280;26812;42.662;23.352;2022-12-20T02:15:03;96657.38;;;-0.29;63.36
41062;BME280;26812;42.662;23.352;2022-12-20T02:34:32;96661.16;;;0.15;62.23
41062;BME280;26812;42.662;23.352;2022-12-20T02:36:59;96653.63;;;0.05;62.53
41062;BME280;26812;42.662;23.352;2022-12-20T02:39:25;96658.13;;;-0.02;62.72
41062;BME280;26812;42.662;23.352;2022-12-20T02:42:14;96656.28;;;0.05;62.32
41062;BME280;26812;42.662;23.352;2022-12-20T02:44:49;96662.19;;;0.07;62.67
41062;BME280;26812;42.662;23.352;2022-12-20T02:47:51;96659.97;;;0.04;62.36
41062;BME280;26812;42.662;23.352;2022-12-20T02:50:22;96653.63;;;-0.02;62.65
41062;BME280;26812;42.662;23.352;2022-12-20T02:52:50;96654.44;;;-0.01;62.45
41062;BME280;26812;42.662;23.352;2022-12-20T02:55:16;96629.81;;;-0.15;62.41
41062;BME280;26812;42.662;23.352;2022-12-20T02:57:53;96637.72;;;0.05;62.33
41062;BME280;26812;42.662;23.352;2022-12-20T03:00:21;96649.13;;;-0.01;62.18
41062;BME280;26812;42.662;23.352;2022-12-20T03:02:48;96642.63;;;-0.05;62.43
41062;BME280;26812;42.662;23.352;2022-12-20T03:05:38;96651.81;;;-0.08;62.70
41062;BME280;26812;42.662;23.352;2022-12-20T03:08:08;96649.78;;;-0.06;63.39
41062;BME280;26812;42.662;23.352;2022-12-20T03:10:33;96645.75;;;-0.28;64.39
41062;BME280;26812;42.662;23.352;2022-12-20T03:12:59;96619.66;;;-0.24;64.39
41062;BME280;26812;42.662;23.352;2022-12-20T03:15:24;96626.81;;;-0.25;64.66
41062;BME280;26812;42.662;23.352;2022-12-20T03:17:50;96649.97;;;-0.07;64.28
41062;BME280;26812;42.662;23.352;2022-12-20T03:20:15;96644.66;;;-0.01;64.14
41062;BME280;26812;42.662;23.352;2022-12-20T03:22:40;96619.81;;;-0.06;63.76
41062;BME280;26812;42.662;23.352;2022-12-20T03:25:06;96640.00;;;-0.12;63.99
41062;BME280;26812;42.662;23.352;2022-12-20T03:27:32;96629.81;;;-0.15;63.70
41062;BME280;26812;42.662;23.352;2022-12-20T03:29:58;96631.28;;;-0.25;64.56
41062;BME280;26812;42.662;23.352;2022-12-20T03:32:23;96631.47;;;-0.34;64.46
41062;BME280;26812;42.662;23.352;2022-12-20T03:34:48;96623.97;;;-0.43;64.39
41062;BME280;26812;42.662;23.352;2022-12-20T03:37:14;96643.31;;;-0.29;64.70
41062;BME280;26812;42.662;23.352;2022-12-20T03:39:40;96637.59;;;-0.20;64.12
41062;BME280;26812;42.662;23.352;2022-12-20T03:42:05;96629.06;;;-0.28;63.81
41062;BME280;26812;42.662;23.352;2022-12-20T03:44:31;96624.56;;;-0.28;64.65
41062;BME280;26812;42.662;23.352;2022-12-20T03:46:56;96633.94;;;-0.25;63.95
41062;BME280;26812;42.662;23.352;2022-12-20T03:49:22;96633.94;;;-0.25;64.27
41062;BME280;26812;42.662;23.352;2022-12-20T03:51:47;96617.81;;;-0.17;64.02
41062;BME280;26812;42.662;23.352;2022-12-20T03:54:13;96604.81;;;-0.39;63.86
41062;BME280;26812;42.662;23.352;2022-12-20T03:56:45;96628.22;;;-0.22;64.00
41062;BME280;26812;42.662;23.352;2022-12-20T03:59:10;96624.38;;;-0.40;64.59
41062;BME280;26812;42.662;23.352;2022-12-20T04:01:35;96622.31;;;-0.38;64.52
41062;BME280;26812;42.662;23.352;2022-12-20T04:04:03;96635.38;;;-0.43;64.55
41062;BME280;26812;42.662;23.352;2022-12-20T04:06:29;96612.19;;;-0.60;64.52
41062;BME280;26812;42.662;23.352;2022-12-20T04:08:54;96624.41;;;-0.79;65.38
41062;BME280;26812;42.662;23.352;2022-12-20T04:11:20;96605.69;;;-0.84;65.35
41062;BME280;26812;42.662;23.352;2022-12-20T04:13:47;96620.31;;;-0.75;65.45
41062;BME280;26812;42.662;23.352;2022-12-20T04:16:15;96624.41;;;-0.59;64.99
41062;BME280;26812;42.662;23.352;2022-12-20T04:18:41;96618.69;;;-0.70;65.29
41062;BME280;26812;42.662;23.352;2022-12-20T04:21:07;96619.50;;;-0.56;65.58
41062;BME280;26812;42.662;23.352;2022-12-20T04:23:34;96608.31;;;-0.58;64.93
41062;BME280;26812;42.662;23.352;2022-12-20T04:26:01;96608.09;;;-0.50;65.06
41062;BME280;26812;42.662;23.352;2022-12-20T04:28:27;96619.91;;;-0.46;64.83
41062;BME280;26812;42.662;23.352;2022-12-20T04:30:53;96614.00;;;-0.68;65.24
41062;BME280;26812;42.662;23.352;2022-12-20T04:33:18;96614.78;;;-0.41;65.28
41062;BME280;26812;42.662;23.352;2022-12-20T04:35:44;96587.72;;;-0.63;65.03
41062;BME280;26812;42.662;23.352;2022-12-20T04:38:09;96617.66;;;-0.42;64.00
41062;BME280;26812;42.662;23.352;2022-12-20T04:40:34;96593.66;;;-0.60;64.79
41062;BME280;26812;42.662;23.352;2022-12-20T04:43:00;96586.50;;;-0.67;65.13
41062;BME280;26812;42.662;23.352;2022-12-20T04:45:25;96612.78;;;-0.65;65.74
41062;BME280;26812;42.662;23.352;2022-12-20T04:47:51;96577.56;;;-0.99;66.13
41062;BME280;26812;42.662;23.352;2022-12-20T04:50:16;96600.59;;;-0.79;66.68
41062;BME280;26812;42.662;23.352;2022-12-20T04:52:43;96625.41;;;-0.74;66.64
41062;BME280;26812;42.662;23.352;2022-12-20T04:55:28;96613.81;;;-0.73;65.61
41062;BME280;26812;42.662;23.352;2022-12-20T04:57:53;96617.25;;;-0.66;65.54
41062;BME280;26812;42.662;23.352;2022-12-20T05:00:19;96562.09;;;-0.95;65.75
41062;BME280;26812;42.662;23.352;2022-12-20T05:02:45;96608.31;;;-0.78;65.61
41062;BME280;26812;42.662;23.352;2022-12-20T05:05:10;96613.63;;;-0.78;65.70
41062;BME280;26812;42.662;23.352;2022-12-20T05:07:36;96605.88;;;-0.73;65.49
41062;BME280;26812;42.662;23.352;2022-12-20T05:10:01;96603.22;;;-0.79;65.56
41062;BME280;26812;42.662;23.352;2022-12-20T05:12:27;96604.03;;;-0.79;66.01
41062;BME280;26812;42.662;23.352;2022-12-20T05:14:52;96604.06;;;-0.85;65.85
41062;BME280;26812;42.662;23.352;2022-12-20T05:17:18;96594.88;;;-1.16;66.12
41062;BME280;26812;42.662;23.352;2022-12-20T05:19:43;96597.91;;;-1.26;67.20
41062;BME280;26812;42.662;23.352;2022-12-20T05:22:09;96601.78;;;-0.95;66.32
41062;BME280;26812;42.662;23.352;2022-12-20T05:24:53;96610.13;;;-0.98;66.44
41062;BME280;26812;42.662;23.352;2022-12-20T05:27:37;96613.41;;;-0.83;65.39
41062;BME280;26812;42.662;23.352;2022-12-20T05:30:03;96603.63;;;-1.02;65.90
41062;BME280;26812;42.662;23.352;2022-12-20T05:32:28;96605.25;;;-0.95;65.60
41062;BME280;26812;42.662;23.352;2022-12-20T05:34:54;96614.44;;;-0.90;65.75
41062;BME280;26812;42.662;23.352;2022-12-20T05:37:19;96588.97;;;-1.05;65.67
41062;BME280;26812;42.662;23.352;2022-12-20T05:39:45;96597.13;;;-1.00;65.35
41062;BME280;26812;42.662;23.352;2022-12-20T05:42:10;96604.25;;;-1.07;66.03
41062;BME280;26812;42.662;23.352;2022-12-20T05:44:36;96608.31;;;-1.17;65.93
41062;BME280;26812;42.662;23.352;2022-12-20T05:47:01;96626.00;;;-1.11;66.23
41062;BME280;26812;42.662;23.352;2022-12-20T05:49:27;96616.44;;;-1.19;66.49
41062;BME280;26812;42.662;23.352;2022-12-20T05:51:52;96614.00;;;-1.20;66.59
41062;BME280;26812;42.662;23.352;2022-12-20T05:54:18;96623.97;;;-1.03;66.66
41062;BME280;26812;42.662;23.352;2022-12-20T05:56:44;96587.56;;;-1.20;65.59
41062;BME280;26812;42.662;23.352;2022-12-20T05:59:09;96620.31;;;-1.21;67.03
41062;BME280;26812;42.662;23.352;2022-12-20T06:01:35;96615.03;;;-1.02;66.32
41062;BME280;26812;42.662;23.352;2022-12-20T06:04:01;96610.34;;;-1.06;66.29
41062;BME280;26812;42.662;23.352;2022-12-20T06:06:26;96626.00;;;-0.98;65.89
41062;BME280;26812;42.662;23.352;2022-12-20T06:08:51;96622.38;;;-0.84;65.78
41062;BME280;26812;42.662;23.352;2022-12-20T06:11:17;96616.25;;;-0.84;66.03
41062;BME280;26812;42.662;23.352;2022-12-20T06:13:42;96621.53;;;-0.71;64.89
41062;BME280;26812;42.662;23.352;2022-12-20T06:16:08;96613.19;;;-0.95;65.89
41062;BME280;26812;42.662;23.352;2022-12-20T06:18:33;96608.91;;;-0.96;65.77
41062;BME280;26812;42.662;23.352;2022-12-20T06:21:04;96622.75;;;-0.94;65.61
41062;BME280;26812;42.662;23.352;2022-12-20T06:23:30;96615.44;;;-1.11;66.12
41062;BME280;26812;42.662;23.352;2022-12-20T06:25:55;96625.19;;;-0.92;66.03
41062;BME280;26812;42.662;23.352;2022-12-20T06:28:22;96628.06;;;-0.67;64.78
41062;BME280;26812;42.662;23.352;2022-12-20T06:30:54;96625.63;;;-0.55;65.69
41062;BME280;26812;42.662;23.352;2022-12-20T06:33:20;96622.16;;;-0.56;64.24
41062;BME280;26812;42.662;23.352;2022-12-20T06:35:46;96612.19;;;-0.60;63.72
41062;BME280;26812;42.662;23.352;2022-12-20T06:38:13;96626.84;;;-0.51;63.57
41062;BME280;26812;42.662;23.352;2022-12-20T06:40:38;96622.78;;;-0.74;63.88
41062;BME280;26812;42.662;23.352;2022-12-20T06:43:04;96620.53;;;-0.70;64.70
41062;BME280;26812;42.662;23.352;2022-12-20T06:45:29;96614.59;;;-0.46;63.28
41062;BME280;26812;42.662;23.352;2022-12-20T06:47:56;96582.47;;;-0.76;64.50
41062;BME280;26812;42.662;23.352;2022-12-20T06:50:22;96615.03;;;-0.49;63.40
41062;BME280;26812;42.662;23.352;2022-12-20T06:52:47;96616.03;;;-0.30;63.81
41062;BME280;26812;42.662;23.352;2022-12-20T06:55:13;96610.53;;;-0.48;64.09
41062;BME280;26812;42.662;23.352;2022-12-20T06:57:38;96612.13;;;-0.27;63.54
41062;BME280;26812;42.662;23.352;2022-12-20T07:00:05;96615.41;;;-0.25;63.26
41062;BME280;26812;42.662;23.352;2022-12-20T07:02:32;96612.75;;;-0.25;63.65
41062;BME280;26812;42.662;23.352;2022-12-20T07:04:58;96588.81;;;-0.06;63.01
41062;BME280;26812;42.662;23.352;2022-12-20T07:07:23;96590.03;;;0.05;61.92
41062;BME280;26812;42.662;23.352;2022-12-20T07:09:49;96593.81;;;-0.29;61.72
41062;BME280;26812;42.662;23.352;2022-12-20T07:12:15;96597.47;;;-0.37;62.11
41062;BME280;26812;42.662;23.352;2022-12-20T07:14:40;96587.34;;;-0.53;62.29
41062;BME280;26812;42.662;23.352;2022-12-20T07:17:06;96577.94;;;-0.49;62.73
41062;BME280;26812;42.662;23.352;2022-12-20T07:19:32;96597.50;;;-0.50;62.81
41062;BME280;26812;42.662;23.352;2022-12-20T07:21:58;96561.69;;;-0.59;63.29
41062;BME280;26812;42.662;23.352;2022-12-20T07:24:23;96588.31;;;-0.27;63.11
41062;BME280;26812;42.662;23.352;2022-12-20T07:26:49;96569.91;;;-0.16;62.76
41062;BME280;26812;42.662;23.352;2022-12-20T07:29:14;96597.47;;;0.28;62.43
41062;BME280;26812;42.662;23.352;2022-12-20T07:31:40;96587.16;;;0.51;60.89
41062;BME280;26812;42.662;23.352;2022-12-20T07:34:05;96586.78;;;0.48;60.41
41062;BME280;26812;42.662;23.352;2022-12-20T07:36:31;96588.00;;;0.45;58.09
41062;BME280;26812;42.662;23.352;2022-12-20T07:38:57;96589.47;;;-0.10;60.18
41062;BME280;26812;42.662;23.352;2022-12-20T07:41:22;96596.00;;;-0.13;60.39
41062;BME280;26812;42.662;23.352;2022-12-20T07:43:49;96590.34;;;0.22;60.46
41062;BME280;26812;42.662;23.352;2022-12-20T07:46:15;96571.78;;;0.91;58.99
41062;BME280;26812;42.662;23.352;2022-12-20T07:48:41;96593.41;;;1.45;56.91
41062;BME280;26812;42.662;23.352;2022-12-20T07:51:12;96572.88;;;1.34;55.28
41062;BME280;26812;42.662;23.352;2022-12-20T07:53:44;96580.31;;;2.05;52.95
41062;BME280;26812;42.662;23.352;2022-12-20T07:56:12;96578.50;;;2.54;51.29
41062;BME280;26812;42.662;23.352;2022-12-20T07:58:41;96574.69;;;2.49;51.29
41062;BME280;26812;42.662;23.352;2022-12-20T08:01:08;96583.47;;;2.50;50.88
41062;BME280;26812;42.662;23.352;2022-12-20T08:03:38;96586.97;;;2.62;50.73
41062;BME280;26812;42.662;23.352;2022-12-20T08:06:06;96561.31;;;2.38;51.38
41062;BME280;26812;42.662;23.352;2022-12-20T08:08:34;96562.06;;;2.27;50.53
41062;BME280;26812;42.662;23.352;2022-12-20T08:11:01;96560.56;;;3.02;50.74
41062;BME280;26812;42.662;23.352;2022-12-20T08:13:27;96569.16;;;3.98;47.13
41062;BME280;26812;42.662;23.352;2022-12-20T08:15:53;96568.16;;;4.39;45.73
41062;BME280;26812;42.662;23.352;2022-12-20T08:18:19;96572.38;;;5.25;45.96
41062;BME280;26812;42.662;23.352;2022-12-20T08:20:44;96575.38;;;6.18;43.26
41062;BME280;26812;42.662;23.352;2022-12-20T08:23:09;96572.75;;;5.17;43.16
41062;BME280;26812;42.662;23.352;2022-12-20T08:25:35;96558.78;;;5.27;43.03
41062;BME280;26812;42.662;23.352;2022-12-20T08:28:00;96571.91;;;4.83;43.75
41062;BME280;26812;42.662;23.352;2022-12-20T08:30:28;96555.94;;;4.43;45.14
41062;BME280;26812;42.662;23.352;2022-12-20T08:32:54;96543.13;;;4.57;44.82
41062;BME280;26812;42.662;23.352;2022-12-20T08:35:21;96559.81;;;4.64;44.45
41062;BME280;26812;42.662;23.352;2022-12-20T08:37:46;96555.16;;;4.71;44.96
41062;BME280;26812;42.662;23.352;2022-12-20T08:40:12;96556.91;;;4.65;45.01
41062;BME280;26812;42.662;23.352;2022-12-20T08:42:38;96534.16;;;4.06;45.60
41062;BME280;26812;42.662;23.352;2022-12-20T08:45:05;96544.69;;;4.13;46.12
41062;BME280;26812;42.662;23.352;2022-12-20T08:47:30;96494.03;;;4.01;45.48
41062;BME280;26812;42.662;23.352;2022-12-20T08:49:55;96533.47;;;4.39;45.74
41062;BME280;26812;42.662;23.352;2022-12-20T08:52:21;96535.59;;;4.25;44.56
41062;BME280;26812;42.662;23.352;2022-12-20T08:54:46;96551.06;;;5.14;44.93
41062;BME280;26812;42.662;23.352;2022-12-20T08:57:12;96508.94;;;4.14;43.73
41062;BME280;26812;42.662;23.352;2022-12-20T08:59:40;96532.31;;;2.90;46.66
41062;BME280;26812;42.662;23.352;2022-12-20T09:02:06;96545.78;;;3.65;46.69
41062;BME280;26812;42.662;23.352;2022-12-20T09:04:31;96550.34;;;4.16;46.53
41062;BME280;26812;42.662;23.352;2022-12-20T09:06:56;96542.13;;;4.75;44.82
41062;BME280;26812;42.662;23.352;2022-12-20T09:09:22;96474.66;;;4.96;43.29
41062;BME280;26812;42.662;23.352;2022-12-20T09:11:47;96524.72;;;4.89;43.12
41062;BME280;26812;42.662;23.352;2022-12-20T09:14:13;96517.78;;;4.88;43.58
41062;BME280;26812;42.662;23.352;2022-12-20T09:16:38;96528.56;;;5.10;42.90
41062;BME280;26812;42.662;23.352;2022-12-20T09:19:04;96511.63;;;4.71;43.58
41062;BME280;26812;42.662;23.352;2022-12-20T09:21:29;96523.31;;;5.32;43.18
41062;BME280;26812;42.662;23.352;2022-12-20T09:23:55;96509.31;;;5.24;42.09
41062;BME280;26812;42.662;23.352;2022-12-20T09:26:22;96505.66;;;5.14;43.27
41062;BME280;26812;42.662;23.352;2022-12-20T09:28:48;96507.00;;;4.83;43.29
41062;BME280;26812;42.662;23.352;2022-12-20T09:31:17;96493.22;;;4.57;44.01
41062;BME280;26812;42.662;23.352;2022-12-20T09:33:43;96494.06;;;4.75;43.00
41062;BME280;26812;42.662;23.352;2022-12-20T09:36:14;96502.28;;;4.56;43.81
41062;BME280;26812;42.662;23.352;2022-12-20T09:38:44;96475.16;;;4.93;43.11
41062;BME280;26812;42.662;23.352;2022-12-20T09:41:24;96482.34;;;5.48;42.61
41062;BME280;26812;42.662;23.352;2022-12-20T09:43:50;96488.50;;;6.52;40.36
41062;BME280;26812;42.662;23.352;2022-12-20T09:46:16;96484.19;;;7.47;37.38
41062;BME280;26812;42.662;23.352;2022-12-20T09:48:43;96489.44;;;7.00;35.95
41062;BME280;26812;42.662;23.352;2022-12-20T09:59:47;96443.22;;;9.72;31.91
41062;BME280;26812;42.662;23.352;2022-12-20T10:02:15;96433.59;;;11.09;30.05
41062;BME280;26812;42.662;23.352;2022-12-20T10:04:42;96452.25;;;12.35;28.70
41062;BME280;26812;42.662;23.352;2022-12-20T10:10:38;96446.41;;;12.28;27.58
41062;BME280;26812;42.662;23.352;2022-12-20T10:15:50;96435.25;;;11.05;31.08
41062;BME280;26812;42.662;23.352;2022-12-20T10:18:38;96424.03;;;12.22;28.25
41062;BME280;26812;42.662;23.352;2022-12-20T10:24:03;96407.25;;;15.23;24.63
41062;BME280;26812;42.662;23.352;2022-12-20T10:26:33;96384.81;;;16.85;21.78
41062;BME280;26812;42.662;23.352;2022-12-20T10:28:58;96376.22;;;17.38;20.75
41062;BME280;26812;42.662;23.352;2022-12-20T10:31:23;96357.06;;;17.64;20.29
41062;BME280;26812;42.662;23.352;2022-12-20T10:33:49;96375.31;;;18.70;19.54
41062;BME280;26812;42.662;23.352;2022-12-20T10:36:25;96372.13;;;18.59;20.09
41062;BME280;26812;42.662;23.352;2022-12-20T10:38:54;96363.22;;;17.91;20.36
41062;BME280;26812;42.662;23.352;2022-12-20T10:41:32;96353.78;;;18.18;19.93
41062;BME280;26812;42.662;23.352;2022-12-20T10:44:19;96338.41;;;17.37;19.57
41062;BME280;26812;42.662;23.352;2022-12-20T10:46:50;96350.34;;;17.15;20.83
41062;BME280;26812;42.662;23.352;2022-12-20T10:49:30;96338.81;;;14.82;22.37
41062;BME280;26812;42.662;23.352;2022-12-20T10:54:50;96328.34;;;13.67;24.82
41062;BME280;26812;42.662;23.352;2022-12-20T10:57:25;96323.66;;;12.66;24.83
41062;BME280;26812;42.662;23.352;2022-12-20T10:59:57;96321.22;;;12.13;26.24
41062;BME280;26812;42.662;23.352;2022-12-20T11:02:31;96330.78;;;13.55;25.58
41062;BME280;26812;42.662;23.352;2022-12-20T11:08:00;96321.44;;;15.05;22.73
41062;BME280;26812;42.662;23.352;2022-12-20T11:10:31;96317.44;;;15.82;22.54
41062;BME280;26812;42.662;23.352;2022-12-20T11:13:00;96305.69;;;15.25;22.83
41062;BME280;26812;42.662;23.352;2022-12-20T11:15:31;96304.09;;;16.46;21.29
41062;BME280;26812;42.662;23.352;2022-12-20T11:18:18;96309.06;;;16.79;20.32
41062;BME280;26812;42.662;23.352;2022-12-20T11:20:56;96302.81;;;16.95;20.24
41062;BME280;26812;42.662;23.352;2022-12-20T11:23:33;96292.81;;;17.17;20.41
41062;BME280;26812;42.662;23.352;2022-12-20T11:26:35;96294.50;;;16.57;20.99
41062;BME280;26812;42.662;23.352;2022-12-20T11:29:26;96286.97;;;16.45;19.85
41062;BME280;26812;42.662;23.352;2022-12-20T11:32:22;96295.38;;;14.73;22.34
41062;BME280;26812;42.662;23.352;2022-12-20T11:37:25;96270.69;;;12.65;24.97
41062;BME280;26812;42.662;23.352;2022-12-20T11:40:32;96284.47;;;13.92;25.00
41062;BME280;26812;42.662;23.352;2022-12-20T11:43:21;96277.84;;;15.10;23.26
41062;BME280;26812;42.662;23.352;2022-12-20T11:51:38;96260.09;;;16.18;21.13
41062;BME280;26812;42.662;23.352;2022-12-20T11:54:13;96252.41;;;17.27;20.47
41062;BME280;26812;42.662;23.352;2022-12-20T11:56:43;96263.69;;;17.85;19.85
41062;BME280;26812;42.662;23.352;2022-12-20T11:59:25;96256.69;;;16.90;20.81
41062;BME280;26812;42.662;23.352;2022-12-20T12:04:39;96264.53;;;14.69;21.74
41062;BME280;26812;42.662;23.352;2022-12-20T12:07:27;96244.66;;;15.13;21.60
41062;BME280;26812;42.662;23.352;2022-12-20T12:12:29;96246.75;;;15.16;21.47
41062;BME280;26812;42.662;23.352;2022-12-20T12:23:25;96234.78;;;16.52;20.81
41062;BME280;26812;42.662;23.352;2022-12-20T12:25:53;96225.44;;;17.34;19.78
41062;BME280;26812;42.662;23.352;2022-12-20T12:28:20;96240.91;;;18.10;18.95
41062;BME280;26812;42.662;23.352;2022-12-20T12:31:08;96239.47;;;18.46;18.06
41062;BME280;26812;42.662;23.352;2022-12-20T12:33:49;96234.00;;;18.67;18.23
41062;BME280;26812;42.662;23.352;2022-12-20T12:37:16;96231.41;;;18.70;17.84
41062;BME280;26812;42.662;23.352;2022-12-20T12:45:06;96217.75;;;21.44;15.55
41062;BME280;26812;42.662;23.352;2022-12-20T12:47:59;96211.09;;;22.12;14.88
41062;BME280;26812;42.662;23.352;2022-12-20T12:50:27;96214.94;;;22.46;14.72
41062;BME280;26812;42.662;23.352;2022-12-20T12:52:56;96220.06;;;22.86;14.22
41062;BME280;26812;42.662;23.352;2022-12-20T12:55:53;96220.50;;;22.88;13.52
41062;BME280;26812;42.662;23.352;2022-12-20T13:01:10;96222.00;;;22.85;13.88
41062;BME280;26812;42.662;23.352;2022-12-20T13:16:41;96182.25;;;11.87;23.44
41062;BME280;26812;42.662;23.352;2022-12-20T13:21:38;96182.03;;;11.65;24.30
41062;BME280;26812;42.662;23.352;2022-12-20T13:26:56;96186.41;;;9.83;26.39
41062;BME280;26812;42.662;23.352;2022-12-20T13:29:24;96183.00;;;8.64;28.29
41062;BME280;26812;42.662;23.352;2022-12-20T13:31:50;96193.50;;;8.45;29.11
41062;BME280;26812;42.662;23.352;2022-12-20T13:34:51;96192.38;;;7.34;30.17
41062;BME280;26812;42.662;23.352;2022-12-20T13:37:51;96183.00;;;7.27;30.97
41062;BME280;26812;42.662;23.352;2022-12-20T13:43:09;96179.41;;;6.91;31.90
41062;BME280;26812;42.662;23.352;2022-12-20T13:45:38;96162.00;;;7.03;30.84
41062;BME280;26812;42.662;23.352;2022-12-20T13:48:11;96183.50;;;7.24;31.36
41062;BME280;26812;42.662;23.352;2022-12-20T13:50:40;96191.75;;;7.02;34.44
41062;BME280;26812;42.662;23.352;2022-12-20T13:53:29;96187.72;;;6.94;33.75
41062;BME280;26812;42.662;23.352;2022-12-20T13:55:56;96200.69;;;6.60;33.86
41062;BME280;26812;42.662;23.352;2022-12-20T13:58:24;96191.16;;;6.84;33.97
41062;BME280;26812;42.662;23.352;2022-12-20T14:00:51;96171.28;;;6.70;34.05
41062;BME280;26812;42.662;23.352;2022-12-20T14:05:43;96179.22;;;6.50;36.46
41062;BME280;26812;42.662;23.352;2022-12-20T14:08:15;96192.50;;;6.35;36.65
41062;BME280;26812;42.662;23.352;2022-12-20T14:10:42;96170.00;;;6.31;36.30
41062;BME280;26812;42.662;23.352;2022-12-20T14:13:22;96168.34;;;6.19;36.76
41062;BME280;26812;42.662;23.352;2022-12-20T14:15:48;96168.63;;;6.23;36.87
41062;BME280;26812;42.662;23.352;2022-12-20T14:18:20;96172.22;;;6.44;36.22
41062;BME280;26812;42.662;23.352;2022-12-20T14:21:07;96166.38;;;6.47;36.15
41062;BME280;26812;42.662;23.352;2022-12-20T14:26:00;96130.66;;;6.31;35.78
41062;BME280;26812;42.662;23.352;2022-12-20T14:30:55;96161.22;;;6.40;36.68
41062;BME280;26812;42.662;23.352;2022-12-20T14:33:34;96167.31;;;6.26;37.58
41062;BME280;26812;42.662;23.352;2022-12-20T14:38:33;96148.03;;;5.86;36.95
41062;BME280;26812;42.662;23.352;2022-12-20T14:40:59;96158.53;;;5.93;37.56
41062;BME280;26812;42.662;23.352;2022-12-20T14:43:27;96172.34;;;5.53;36.61
41062;BME280;26812;42.662;23.352;2022-12-20T14:46:25;96165.41;;;4.98;36.65